createdAt,value
2023-02-21T00:02:01.038Z,1.90
2023-02-21T00:04:46.625Z,1.80
2023-02-21T00:07:31.920Z,1.70
2023-02-21T00:10:17.415Z,1.70
2023-02-21T00:13:03.132Z,1.60
2023-02-21T00:15:48.267Z,1.70
2023-02-21T00:18:33.903Z,1.70
2023-02-21T00:21:19.539Z,1.80
2023-02-21T00:24:05.072Z,1.80
2023-02-21T00:26:50.618Z,1.80
2023-02-21T00:29:36.609Z,1.80
2023-02-21T00:32:21.837Z,1.80
2023-02-21T00:35:07.350Z,1.80
2023-02-21T00:37:52.734Z,1.80
2023-02-21T00:40:38.299Z,1.80
2023-02-21T00:43:23.977Z,1.80
2023-02-21T00:46:09.602Z,1.80
2023-02-21T00:48:55.168Z,1.90
2023-02-21T00:51:40.812Z,1.80
2023-02-21T00:54:25.992Z,1.70
2023-02-21T00:57:11.327Z,1.70
2023-02-21T00:59:56.795Z,1.70
2023-02-21T01:02:42.060Z,1.70
2023-02-21T01:05:27.413Z,1.60
2023-02-21T01:08:15.940Z,1.40
2023-02-21T01:11:01.424Z,1.30
2023-02-21T01:13:46.686Z,1.30
2023-02-21T01:16:32.182Z,1.30
2023-02-21T01:19:17.403Z,1.30
2023-02-21T01:22:02.600Z,1.40
2023-02-21T01:24:47.964Z,1.40
2023-02-21T01:27:33.203Z,1.40
2023-02-21T01:30:18.439Z,1.20
2023-02-21T01:33:03.641Z,1.10
2023-02-21T01:35:49.221Z,1.00
2023-02-21T01:38:34.759Z,1.10
2023-02-21T01:41:20.343Z,1.10
2023-02-21T01:44:21.521Z,1.10
2023-02-21T01:47:07.364Z,1.00
2023-02-21T01:49:55.102Z,1.00
2023-02-21T01:52:41.234Z,0.90
2023-02-21T01:55:27.552Z,0.90
2023-02-21T01:58:13.883Z,0.90
2023-02-21T02:00:59.818Z,0.90
2023-02-21T03:22:11.582Z,0.70
2023-02-21T03:24:42.719Z,0.70
2023-02-21T03:27:10.548Z,0.70
2023-02-21T03:29:39.007Z,0.60
2023-02-21T03:32:20.932Z,0.60
2023-02-21T03:34:47.870Z,0.60
2023-02-21T03:37:31.821Z,0.50
2023-02-21T03:39:59.089Z,0.50
2023-02-21T03:42:25.905Z,0.40
2023-02-21T03:44:52.741Z,0.40
2023-02-21T03:47:19.580Z,0.40
2023-02-21T03:49:46.456Z,0.40
2023-02-21T03:52:14.174Z,0.50
2023-02-21T03:54:41.550Z,0.50
2023-02-21T03:57:08.663Z,0.60
2023-02-21T03:59:35.465Z,0.60
2023-02-21T04:02:02.739Z,0.70
2023-02-21T04:04:29.619Z,0.80
2023-02-21T04:06:56.425Z,0.80
2023-02-21T04:09:23.504Z,0.90
2023-02-21T04:11:50.399Z,0.90
2023-02-21T04:14:17.221Z,1.00
2023-02-21T04:16:44.249Z,1.00
2023-02-21T04:19:11.147Z,1.00
2023-02-21T04:21:38.037Z,1.00
2023-02-21T04:24:05.158Z,1.10
2023-02-21T04:26:32.224Z,1.10
2023-02-21T04:28:59.037Z,1.20
2023-02-21T04:31:26.166Z,1.20
2023-02-21T04:34:02.482Z,1.30
2023-02-21T04:36:38.315Z,1.30
2023-02-21T04:39:06.606Z,1.40
2023-02-21T04:41:33.531Z,1.40
2023-02-21T04:44:00.346Z,1.40
2023-02-21T04:46:27.355Z,1.50
2023-02-21T04:48:54.449Z,1.50
2023-02-21T04:51:24.539Z,1.50
2023-02-21T04:53:52.798Z,1.60
2023-02-21T04:56:22.586Z,1.60
2023-02-21T04:58:49.758Z,1.70
2023-02-21T05:01:18.238Z,1.70
2023-02-21T05:03:45.199Z,1.80
2023-02-21T05:06:18.740Z,1.80
2023-02-21T05:08:45.545Z,1.80
2023-02-21T05:11:12.871Z,1.90
2023-02-21T05:13:40.056Z,2.00
2023-02-21T05:16:07.189Z,2.00
2023-02-21T05:18:34.672Z,2.00
2023-02-21T05:21:03.314Z,2.10
2023-02-21T05:23:36.951Z,2.10
2023-02-21T05:26:07.306Z,2.10
2023-02-21T05:28:35.175Z,2.20
2023-02-21T05:31:02.160Z,2.30
2023-02-21T05:33:29.409Z,2.30
2023-02-21T05:35:57.174Z,2.40
2023-02-21T05:38:24.991Z,2.50
2023-02-21T05:40:52.303Z,2.50
2023-02-21T05:43:19.568Z,2.60
2023-02-21T05:45:46.552Z,2.70
2023-02-21T05:48:13.484Z,2.70
2023-02-21T05:50:40.286Z,2.80
2023-02-21T05:53:07.304Z,2.80
2023-02-21T05:55:34.140Z,2.90
2023-02-21T05:58:00.905Z,2.90
2023-02-21T06:00:30.083Z,3.00
2023-02-21T06:02:57.289Z,3.00
2023-02-21T06:05:24.830Z,3.00
2023-02-21T06:07:51.990Z,3.10
2023-02-21T06:10:19.921Z,3.10
2023-02-21T06:12:47.358Z,3.20
2023-02-21T06:15:15.460Z,3.10
2023-02-21T06:17:43.412Z,3.20
2023-02-21T06:20:17.828Z,3.20
2023-02-21T06:22:44.889Z,3.20
2023-02-21T06:25:12.223Z,3.30
2023-02-21T06:27:39.067Z,3.40
2023-02-21T06:30:06.799Z,3.40
2023-02-21T06:32:33.973Z,3.40
2023-02-21T06:35:00.799Z,3.50
2023-02-21T06:37:28.627Z,3.60
2023-02-21T06:39:55.529Z,3.70
2023-02-21T06:42:22.996Z,3.80
2023-02-21T06:44:50.357Z,3.80
2023-02-21T06:47:17.742Z,3.80
2023-02-21T06:49:44.820Z,3.90
2023-02-21T06:52:11.672Z,3.90
2023-02-21T06:54:38.831Z,4.00
2023-02-21T06:57:06.011Z,4.00
2023-02-21T06:59:32.995Z,4.10
2023-02-21T07:01:59.986Z,4.10
2023-02-21T07:04:26.925Z,4.20
2023-02-21T07:06:53.909Z,4.30
2023-02-21T07:09:21.015Z,4.30
2023-02-21T07:11:47.999Z,4.40
2023-02-21T07:14:14.941Z,4.40
2023-02-21T07:16:41.878Z,4.40
2023-02-21T07:19:08.886Z,4.40
2023-02-21T07:21:36.430Z,4.50
2023-02-21T07:24:03.253Z,4.50
2023-02-21T07:26:30.078Z,4.60
2023-02-21T07:28:56.975Z,4.70
2023-02-21T07:31:24.157Z,4.70
2023-02-21T07:33:51.094Z,4.70
2023-02-21T07:36:19.338Z,4.80
2023-02-21T07:38:46.160Z,4.80
2023-02-21T07:41:15.725Z,4.90
2023-02-21T07:43:42.741Z,5.00
2023-02-21T07:46:15.472Z,5.10
2023-02-21T07:48:42.282Z,5.20
2023-02-21T07:51:10.665Z,5.40
2023-02-21T07:53:37.929Z,5.50
2023-02-21T07:56:05.449Z,5.70
2023-02-21T07:58:32.586Z,5.80
2023-02-21T08:00:59.479Z,6.00
2023-02-21T08:03:26.341Z,6.10
2023-02-21T08:05:53.145Z,6.30
2023-02-21T08:08:20.075Z,6.50
2023-02-21T08:10:46.902Z,6.60
2023-02-21T08:13:13.738Z,6.80
2023-02-21T08:15:40.579Z,7.00
2023-02-21T08:18:07.404Z,7.10
2023-02-21T08:20:35.241Z,7.30
2023-02-21T08:23:02.069Z,7.50
2023-02-21T08:25:29.150Z,7.70
2023-02-21T08:27:55.982Z,7.80
2023-02-21T08:30:22.941Z,8.00
2023-02-21T08:32:54.227Z,8.20
2023-02-21T08:35:23.023Z,8.40
2023-02-21T08:37:50.769Z,8.60
2023-02-21T08:40:20.987Z,8.70
2023-02-21T08:42:55.390Z,8.80
2023-02-21T08:45:25.533Z,9.00
2023-02-21T08:47:52.560Z,9.10
2023-02-21T08:50:24.373Z,9.30
2023-02-21T08:52:52.246Z,9.40
2023-02-21T08:55:20.276Z,9.50
2023-02-21T08:57:52.243Z,9.70
2023-02-21T09:00:23.325Z,9.80
2023-02-21T09:02:51.653Z,9.80
2023-02-21T09:05:27.692Z,10.00
2023-02-21T09:07:58.923Z,10.10
2023-02-21T09:10:29.726Z,10.20
2023-02-21T09:12:57.097Z,10.30
2023-02-21T09:15:23.955Z,10.40
2023-02-21T09:17:51.180Z,10.50
2023-02-21T09:20:21.715Z,10.70
2023-02-21T09:22:48.661Z,10.80
2023-02-21T09:25:17.568Z,11.00
2023-02-21T09:27:44.381Z,11.20
2023-02-21T09:30:21.883Z,11.30
2023-02-21T09:32:49.247Z,11.40
2023-02-21T09:35:17.068Z,11.50
2023-02-21T09:37:45.553Z,11.60
2023-02-21T09:40:22.840Z,11.80
2023-02-21T09:42:58.797Z,11.80
2023-02-21T09:45:34.864Z,11.90
2023-02-21T09:48:09.064Z,12.00
2023-02-21T09:50:43.889Z,12.20
2023-02-21T09:53:14.658Z,12.40
2023-02-21T09:55:41.991Z,12.40
2023-02-21T09:58:16.333Z,12.40
2023-02-21T10:00:46.478Z,12.60
2023-02-21T10:03:26.852Z,12.80
2023-02-21T10:06:04.284Z,12.80
2023-02-21T10:08:56.898Z,13.00
2023-02-21T10:11:54.133Z,13.10
2023-02-21T10:14:30.628Z,13.00
2023-02-21T10:17:16.658Z,13.10
2023-02-21T10:19:48.362Z,13.20
2023-02-21T10:22:22.226Z,13.30
2023-02-21T10:24:50.229Z,13.40
2023-02-21T10:27:24.803Z,13.60
2023-02-21T10:30:05.625Z,13.60
2023-02-21T10:32:33.303Z,13.60
2023-02-21T10:35:00.458Z,13.70
2023-02-21T10:37:30.249Z,13.60
2023-02-21T10:40:07.623Z,13.70
2023-02-21T10:42:43.662Z,13.70
2023-02-21T10:45:13.217Z,13.80
2023-02-21T10:47:58.991Z,13.80
2023-02-21T10:51:04.548Z,13.80
2023-02-21T10:53:34.132Z,13.90
2023-02-21T10:56:14.857Z,14.10
2023-02-21T10:59:01.249Z,14.10
2023-02-21T11:01:30.396Z,13.70
2023-02-21T11:04:21.275Z,13.90
2023-02-21T11:06:51.078Z,14.00
2023-02-21T11:09:32.999Z,14.40
2023-02-21T11:12:20.765Z,14.50
2023-02-21T11:14:53.628Z,14.60
2023-02-21T11:17:32.496Z,14.40
2023-02-21T11:20:10.859Z,14.50
2023-02-21T11:22:46.940Z,14.40
2023-02-21T11:25:25.745Z,14.30
2023-02-21T11:28:17.851Z,14.40
2023-02-21T11:31:11.809Z,14.30
2023-02-21T11:33:55.354Z,14.10
2023-02-21T11:36:31.363Z,14.40
2023-02-21T11:39:04.536Z,14.50
2023-02-21T11:41:39.821Z,14.60
2023-02-21T11:44:23.360Z,14.70
2023-02-21T11:46:57.709Z,15.00
2023-02-21T11:49:33.550Z,14.90
2023-02-21T11:52:09.819Z,14.80
2023-02-21T11:54:38.593Z,14.80
2023-02-21T11:57:22.086Z,15.10
2023-02-21T11:59:57.031Z,15.00
2023-02-21T12:02:37.089Z,15.30
2023-02-21T12:05:30.114Z,15.60
2023-02-21T12:08:44.007Z,15.40
2023-02-21T12:11:30.790Z,15.40
2023-02-21T12:14:25.607Z,15.30
2023-02-21T12:16:57.002Z,15.30
2023-02-21T12:19:39.188Z,15.20
2023-02-21T12:22:23.642Z,15.50
2023-02-21T12:25:27.745Z,15.30
2023-02-21T12:28:31.979Z,15.70
2023-02-21T12:31:20.978Z,15.80
2023-02-21T12:34:15.527Z,15.50
2023-02-21T12:37:08.772Z,15.40
2023-02-21T12:40:14.474Z,15.40
2023-02-21T12:42:53.097Z,15.50
2023-02-21T12:45:58.827Z,15.80
2023-02-21T12:48:40.816Z,15.90
2023-02-21T12:51:11.756Z,15.90
2023-02-21T12:53:52.047Z,15.80
2023-02-21T12:56:28.822Z,15.50
2023-02-21T12:59:16.031Z,15.30
2023-02-21T13:01:52.730Z,15.40
2023-02-21T13:04:35.569Z,15.30
2023-02-21T13:07:19.370Z,15.20
2023-02-21T13:09:57.714Z,15.40
2023-02-21T13:12:45.492Z,15.10
2023-02-21T13:15:22.372Z,15.20
2023-02-21T13:18:06.020Z,15.50
2023-02-21T13:20:43.803Z,15.30
2023-02-21T13:23:12.562Z,15.30
2023-02-21T13:25:45.513Z,15.60
2023-02-21T13:28:25.658Z,15.60
2023-02-21T13:30:57.908Z,15.50
2023-02-21T13:33:46.703Z,15.70
2023-02-21T13:36:19.728Z,15.90
2023-02-21T13:38:47.362Z,16.20
2023-02-21T13:41:16.884Z,16.30
2023-02-21T13:43:52.830Z,15.70
2023-02-21T13:46:31.884Z,15.40
2023-02-21T13:49:36.128Z,15.40
2023-02-21T13:52:23.775Z,15.60
2023-02-21T13:55:15.214Z,15.50
2023-02-21T13:57:46.299Z,15.60
2023-02-21T14:00:24.850Z,15.60
2023-02-21T14:02:59.278Z,15.90
2023-02-21T14:05:27.458Z,15.70
2023-02-21T14:08:05.807Z,15.60
2023-02-21T14:10:55.234Z,16.00
2023-02-21T14:13:30.030Z,15.90
2023-02-21T14:16:09.867Z,16.10
2023-02-21T14:18:43.448Z,16.30
2023-02-21T14:21:23.283Z,16.10
2023-02-21T14:24:01.519Z,16.10
2023-02-21T14:26:34.429Z,15.80
2023-02-21T14:29:15.205Z,15.40
2023-02-21T14:31:56.405Z,15.60
2023-02-21T14:34:33.399Z,15.60
2023-02-21T14:37:26.597Z,15.50
2023-02-21T14:39:57.748Z,15.30
2023-02-21T14:42:32.249Z,15.40
2023-02-21T14:45:11.108Z,15.20
2023-02-21T14:48:15.012Z,15.20
2023-02-21T14:51:06.720Z,15.10
2023-02-21T14:53:52.288Z,14.90
2023-02-21T14:56:37.291Z,14.80
2023-02-21T14:59:45.240Z,14.90
2023-02-21T15:02:23.993Z,14.80
2023-02-21T15:05:05.675Z,14.70
2023-02-21T15:07:34.678Z,14.70
2023-02-21T15:10:26.002Z,14.60
2023-02-21T15:13:02.312Z,14.40
2023-02-21T15:15:40.860Z,14.50
2023-02-21T15:18:10.311Z,14.40
2023-02-21T15:20:40.691Z,14.50
2023-02-21T15:23:15.318Z,14.50
2023-02-21T15:25:52.729Z,14.40
2023-02-21T15:28:30.990Z,14.30
2023-02-21T15:31:01.211Z,14.30
2023-02-21T15:33:33.921Z,14.20
2023-02-21T15:36:06.909Z,14.20
2023-02-21T15:38:49.017Z,14.20
2023-02-21T15:41:42.680Z,14.30
2023-02-21T15:44:24.137Z,14.30
2023-02-21T15:46:59.711Z,14.30
2023-02-21T15:49:30.239Z,14.20
2023-02-21T15:51:57.327Z,14.20
2023-02-21T15:54:31.622Z,14.20
2023-02-21T15:57:02.725Z,14.00
2023-02-21T15:59:30.759Z,14.00
2023-02-21T16:02:07.962Z,13.90
2023-02-21T16:04:40.051Z,13.90
2023-02-21T16:07:17.641Z,13.90
2023-02-21T16:09:50.535Z,13.90
2023-02-21T16:12:52.638Z,13.90
2023-02-21T16:15:27.129Z,13.90
2023-02-21T16:18:00.415Z,13.90
2023-02-21T16:20:32.401Z,13.90
2023-02-21T16:23:20.638Z,13.90
2023-02-21T16:26:02.544Z,13.90
2023-02-21T16:28:31.571Z,13.80
2023-02-21T16:31:01.901Z,13.80
2023-02-21T16:33:29.930Z,13.80
2023-02-21T16:35:57.471Z,13.80
2023-02-21T16:38:25.656Z,13.70
2023-02-21T16:40:53.384Z,13.70
2023-02-21T16:43:25.625Z,13.70
2023-02-21T16:45:55.874Z,13.60
2023-02-21T16:48:32.995Z,13.60
2023-02-21T16:51:04.815Z,13.60
2023-02-21T16:53:32.168Z,13.60
2023-02-21T16:56:01.285Z,13.50
2023-02-21T16:58:38.977Z,13.50
2023-02-21T17:01:17.881Z,13.40
2023-02-21T17:03:45.054Z,13.30
2023-02-21T17:06:18.896Z,13.30
2023-02-21T17:08:46.060Z,13.30
2023-02-21T17:11:13.341Z,13.20
2023-02-21T17:13:40.458Z,13.20
2023-02-21T17:16:08.155Z,13.10
2023-02-21T17:18:35.064Z,13.00
2023-02-21T17:21:02.619Z,13.00
2023-02-21T17:23:30.299Z,13.00
2023-02-21T17:25:57.307Z,13.00
2023-02-21T17:28:24.271Z,13.00
2023-02-21T17:30:51.258Z,12.90
2023-02-21T17:33:18.168Z,12.90
2023-02-21T17:35:45.128Z,12.90
2023-02-21T17:38:11.985Z,12.90
2023-02-21T17:40:38.889Z,12.90
2023-02-21T17:43:08.752Z,12.80
2023-02-21T17:45:39.376Z,12.80
2023-02-21T17:48:06.484Z,12.80
2023-02-21T17:50:33.843Z,12.80
2023-02-21T17:53:00.919Z,12.70
2023-02-21T17:55:30.144Z,12.70
2023-02-21T17:57:57.646Z,12.70
2023-02-21T18:00:27.340Z,12.70
2023-02-21T18:02:55.508Z,12.60
2023-02-21T18:05:23.029Z,12.60
2023-02-21T18:07:52.487Z,12.60
2023-02-21T18:10:23.057Z,12.50
2023-02-21T18:12:51.441Z,12.50
2023-02-21T18:15:21.669Z,12.40
2023-02-21T18:17:48.767Z,12.30
2023-02-21T18:20:16.479Z,12.30
2023-02-21T18:22:44.314Z,12.30
2023-02-21T18:25:14.785Z,12.20
2023-02-21T18:27:41.808Z,12.20
2023-02-21T18:30:09.450Z,12.10
2023-02-21T18:32:36.452Z,12.10
2023-02-21T18:35:03.496Z,12.10
2023-02-21T18:37:30.307Z,12.10
2023-02-21T18:39:57.349Z,12.10
2023-02-21T18:42:24.260Z,12.10
2023-02-21T18:44:52.447Z,12.10
2023-02-21T18:47:19.832Z,12.00
2023-02-21T18:49:47.849Z,11.90
2023-02-21T18:52:15.641Z,11.80
2023-02-21T18:54:49.718Z,11.80
2023-02-21T18:57:21.832Z,11.80
2023-02-21T18:59:48.824Z,11.70
2023-02-21T19:02:17.874Z,11.60
2023-02-21T19:04:45.562Z,11.60
2023-02-21T19:07:17.038Z,11.50
2023-02-21T19:09:47.021Z,11.50
2023-02-21T19:12:14.005Z,11.50
2023-02-21T19:14:40.935Z,11.40
2023-02-21T19:17:08.658Z,11.30
2023-02-21T19:19:39.046Z,11.30
2023-02-21T19:22:06.276Z,11.20
2023-02-21T19:24:33.381Z,11.20
2023-02-21T19:27:01.044Z,11.20
2023-02-21T19:29:28.354Z,11.10
2023-02-21T19:31:55.365Z,11.10
2023-02-21T19:34:22.278Z,11.00
2023-02-21T19:36:49.849Z,11.00
2023-02-21T19:39:16.785Z,11.00
2023-02-21T19:41:44.098Z,11.00
2023-02-21T19:44:11.024Z,11.00
2023-02-21T19:46:37.974Z,10.90
2023-02-21T19:49:17.512Z,11.00
2023-02-21T19:51:46.019Z,10.90
2023-02-21T19:54:14.039Z,10.80
2023-02-21T19:56:42.373Z,10.80
2023-02-21T19:59:11.117Z,10.80
2023-02-21T20:01:38.738Z,10.80
2023-02-21T20:04:06.079Z,10.80
2023-02-21T20:06:35.468Z,10.90
2023-02-21T20:09:05.061Z,10.80
2023-02-21T20:11:32.471Z,10.90
2023-02-21T20:13:59.994Z,10.90
2023-02-21T20:16:28.208Z,10.90
2023-02-21T20:18:57.380Z,10.90
2023-02-21T20:21:29.354Z,10.90
2023-02-21T20:23:57.916Z,10.90
2023-02-21T20:26:25.880Z,10.90
2023-02-21T20:28:54.011Z,10.90
2023-02-21T20:31:28.853Z,10.90
2023-02-21T20:33:56.693Z,10.80
2023-02-21T20:36:28.212Z,10.90
2023-02-21T20:38:55.095Z,10.80
2023-02-21T20:41:22.404Z,10.80
2023-02-21T20:43:49.312Z,10.80
2023-02-21T20:46:21.927Z,10.80
2023-02-21T20:48:49.959Z,10.80
2023-02-21T20:51:18.473Z,10.80
2023-02-21T20:53:46.315Z,10.80
2023-02-21T20:56:14.180Z,10.80
2023-02-21T20:58:41.039Z,10.80
2023-02-21T21:01:12.153Z,10.80
2023-02-21T21:03:40.244Z,10.90
2023-02-21T21:06:11.395Z,10.80
2023-02-21T21:08:38.260Z,10.80
2023-02-21T21:11:05.369Z,10.80
2023-02-21T21:13:32.207Z,10.70
2023-02-21T21:15:59.175Z,10.70
2023-02-21T21:18:29.141Z,10.50
2023-02-21T21:20:56.018Z,10.50
2023-02-21T21:23:24.150Z,10.50
2023-02-21T21:25:51.869Z,10.50
2023-02-21T21:28:18.758Z,10.50
2023-02-21T21:30:45.686Z,10.50
2023-02-21T21:33:12.725Z,10.60
2023-02-21T21:35:39.514Z,10.60
2023-02-21T21:38:08.023Z,10.50
2023-02-21T21:40:35.052Z,10.40
2023-02-21T21:43:07.601Z,10.30
2023-02-21T21:45:44.295Z,10.30
2023-02-21T21:48:11.738Z,10.30
2023-02-21T21:50:38.541Z,10.40
2023-02-21T21:53:07.003Z,10.40
2023-02-21T21:55:35.488Z,10.40
2023-02-21T21:58:10.762Z,10.40
2023-02-21T22:00:42.241Z,10.40
2023-02-21T22:03:14.379Z,10.40
2023-02-21T22:05:45.630Z,10.40
2023-02-21T22:08:17.018Z,10.40
2023-02-21T22:10:45.363Z,10.40
2023-02-21T22:13:15.462Z,10.40
2023-02-21T22:15:43.765Z,10.40
2023-02-21T22:18:12.102Z,10.40
2023-02-21T22:20:38.923Z,10.40
2023-02-21T22:23:06.701Z,10.30
2023-02-21T22:25:36.916Z,10.20
2023-02-21T22:28:09.619Z,10.20
2023-02-21T22:30:40.448Z,10.20
2023-02-21T22:33:08.985Z,10.20
2023-02-21T22:35:36.197Z,10.20
2023-02-21T22:38:03.104Z,10.20
2023-02-21T22:40:31.376Z,10.20
2023-02-21T22:43:01.193Z,10.20
2023-02-21T22:45:33.253Z,10.20
2023-02-21T22:48:03.316Z,10.20
2023-02-21T22:50:36.589Z,10.20
2023-02-21T22:53:08.001Z,10.30
2023-02-21T22:55:37.091Z,10.30
2023-02-21T22:58:09.500Z,10.30
2023-02-21T23:00:37.824Z,10.30
2023-02-21T23:03:13.197Z,10.30
2023-02-21T23:05:52.328Z,10.30
2023-02-21T23:08:22.740Z,10.30
2023-02-21T23:10:51.544Z,10.30
2023-02-21T23:13:20.658Z,10.30
2023-02-21T23:15:48.864Z,10.30
2023-02-21T23:18:20.792Z,10.30
2023-02-21T23:20:56.335Z,10.30
2023-02-21T23:23:26.567Z,10.30
2023-02-21T23:26:01.558Z,10.20
2023-02-21T23:28:30.008Z,10.20
2023-02-21T23:30:58.752Z,10.10
2023-02-21T23:33:28.432Z,10.10
2023-02-21T23:35:56.809Z,10.10
2023-02-21T23:38:27.951Z,10.20
2023-02-21T23:40:58.852Z,10.20
2023-02-21T23:43:33.219Z,10.20
2023-02-21T23:46:02.689Z,10.10
2023-02-21T23:48:30.197Z,10.20
2023-02-21T23:50:58.007Z,10.20
2023-02-21T23:53:28.129Z,10.20
2023-02-21T23:55:57.590Z,10.20
2023-02-21T23:58:27.654Z,10.20
